createdAt,value
2023-03-15T00:01:16.935Z,100.00
2023-03-15T00:03:45.954Z,100.00
2023-03-15T00:06:15.616Z,100.00
2023-03-15T00:08:47.936Z,100.00
2023-03-15T00:11:17.089Z,100.00
2023-03-15T00:13:47.059Z,100.00
2023-03-15T00:16:17.538Z,100.00
2023-03-15T00:18:47.157Z,100.00
2023-03-15T00:21:16.246Z,100.00
2023-03-15T00:23:50.361Z,100.00
2023-03-15T00:26:19.023Z,100.00
2023-03-15T00:28:48.562Z,100.00
2023-03-15T00:31:19.507Z,100.00
2023-03-15T00:33:48.560Z,100.00
2023-03-15T00:36:17.770Z,100.00
2023-03-15T00:38:46.283Z,100.00
2023-03-15T00:41:17.781Z,100.00
2023-03-15T00:43:48.107Z,100.00
2023-03-15T00:46:18.099Z,100.00
2023-03-15T00:48:49.871Z,100.00
2023-03-15T00:51:22.203Z,100.00
2023-03-15T00:53:52.162Z,100.00
2023-03-15T00:56:22.797Z,100.00
2023-03-15T00:58:53.768Z,100.00
2023-03-15T01:01:25.889Z,100.00
2023-03-15T01:03:54.580Z,100.00
2023-03-15T01:06:27.821Z,100.00
2023-03-15T01:09:05.860Z,100.00
2023-03-15T01:11:34.405Z,100.00
2023-03-15T01:14:05.172Z,100.00
2023-03-15T01:16:33.482Z,100.00
2023-03-15T01:19:01.839Z,100.00
2023-03-15T01:21:30.058Z,100.00
2023-03-15T01:23:58.236Z,100.00
2023-03-15T01:26:26.470Z,100.00
2023-03-15T01:28:55.107Z,100.00
2023-03-15T01:31:27.435Z,100.00
2023-03-15T01:33:56.138Z,100.00
2023-03-15T01:36:25.531Z,100.00
2023-03-15T01:38:54.998Z,100.00
2023-03-15T01:41:28.833Z,100.00
2023-03-15T01:43:57.637Z,100.00
2023-03-15T01:46:34.165Z,100.00
2023-03-15T01:49:25.322Z,100.00
2023-03-15T01:51:58.516Z,100.00
2023-03-15T01:54:34.281Z,100.00
2023-03-15T01:57:07.632Z,100.00
2023-03-15T01:59:40.433Z,100.00
2023-03-15T02:02:14.898Z,100.00
2023-03-15T02:04:47.954Z,100.00
2023-03-15T02:07:19.710Z,100.00
2023-03-15T02:09:55.753Z,100.00
2023-03-15T02:12:23.956Z,100.00
2023-03-15T02:14:54.414Z,100.00
2023-03-15T02:17:34.888Z,100.00
2023-03-15T02:20:17.502Z,100.00
2023-03-15T02:22:53.685Z,100.00
2023-03-15T02:25:34.376Z,100.00
2023-03-15T02:28:07.536Z,100.00
2023-03-15T02:30:36.986Z,100.00
2023-03-15T02:33:10.256Z,100.00
2023-03-15T02:35:38.500Z,100.00
2023-03-15T02:38:06.696Z,100.00
2023-03-15T02:40:34.958Z,100.00
2023-03-15T02:43:08.446Z,100.00
2023-03-15T02:45:39.660Z,100.00
2023-03-15T02:48:08.731Z,100.00
2023-03-15T02:50:37.988Z,100.00
2023-03-15T02:53:06.627Z,100.00
2023-03-15T02:55:35.531Z,100.00
2023-03-15T02:58:05.122Z,100.00
2023-03-15T03:00:33.585Z,100.00
2023-03-15T03:03:06.030Z,100.00
2023-03-15T03:05:34.481Z,100.00
2023-03-15T03:08:27.050Z,100.00
2023-03-15T03:10:55.437Z,100.00
2023-03-15T03:13:25.143Z,100.00
2023-03-15T03:15:58.591Z,100.00
2023-03-15T03:18:30.460Z,100.00
2023-03-15T03:21:00.159Z,100.00
2023-03-15T03:23:28.620Z,100.00
2023-03-15T03:25:58.369Z,100.00
2023-03-15T03:28:31.567Z,100.00
2023-03-15T03:31:00.928Z,100.00
2023-03-15T03:33:34.787Z,100.00
2023-03-15T03:36:04.096Z,100.00
2023-03-15T03:38:32.350Z,100.00
2023-03-15T03:41:03.043Z,100.00
2023-03-15T03:43:34.841Z,100.00
2023-03-15T03:46:03.536Z,100.00
2023-03-15T03:48:33.406Z,100.00
2023-03-15T03:51:01.664Z,100.00
2023-03-15T03:53:29.915Z,100.00
2023-03-15T03:55:58.174Z,100.00
2023-03-15T03:58:26.592Z,100.00
2023-03-15T04:01:01.823Z,100.00
2023-03-15T04:03:33.361Z,100.00
2023-03-15T04:06:08.736Z,100.00
2023-03-15T04:08:42.118Z,100.00
2023-03-15T04:11:17.728Z,100.00
2023-03-15T04:13:50.725Z,100.00
2023-03-15T04:16:20.576Z,100.00
2023-03-15T04:18:58.905Z,100.00
2023-03-15T04:21:31.919Z,100.00
2023-03-15T04:24:10.192Z,100.00
2023-03-15T04:26:58.007Z,100.00
2023-03-15T04:29:56.344Z,100.00
2023-03-15T04:32:42.648Z,100.00
2023-03-15T04:35:22.721Z,100.00
2023-03-15T04:38:04.271Z,100.00
2023-03-15T04:40:52.878Z,100.00
2023-03-15T04:43:42.276Z,100.00
2023-03-15T04:46:28.928Z,100.00
2023-03-15T04:49:17.982Z,100.00
2023-03-15T04:51:58.123Z,100.00
2023-03-15T04:54:46.639Z,100.00
2023-03-15T04:57:25.986Z,100.00
2023-03-15T05:00:07.664Z,100.00
2023-03-15T05:02:58.808Z,100.00
2023-03-15T05:05:51.727Z,100.00
2023-03-15T05:08:40.191Z,100.00
2023-03-15T05:11:27.088Z,100.00
2023-03-15T05:14:08.657Z,100.00
2023-03-15T05:16:54.009Z,100.00
2023-03-15T05:19:46.649Z,100.00
2023-03-15T05:22:34.854Z,100.00
2023-03-15T05:25:21.834Z,100.00
2023-03-15T05:28:26.241Z,100.00
2023-03-15T05:30:59.465Z,100.00
2023-03-15T05:33:47.547Z,100.00
2023-03-15T05:36:30.899Z,100.00
2023-03-15T05:39:24.369Z,100.00
2023-03-15T05:41:58.669Z,100.00
2023-03-15T05:44:45.312Z,100.00
2023-03-15T05:47:39.050Z,100.00
2023-03-15T05:50:08.343Z,100.00
2023-03-15T05:52:52.103Z,100.00
2023-03-15T05:55:44.538Z,100.00
2023-03-15T05:58:30.841Z,100.00
2023-03-15T06:01:07.718Z,100.00
2023-03-15T06:03:55.540Z,100.00
2023-03-15T06:06:28.387Z,100.00
2023-03-15T06:08:56.796Z,100.00
2023-03-15T06:11:26.427Z,100.00
2023-03-15T06:13:55.106Z,100.00
2023-03-15T06:16:37.294Z,100.00
2023-03-15T06:19:06.179Z,100.00
2023-03-15T06:21:34.459Z,100.00
2023-03-15T06:24:06.413Z,100.00
2023-03-15T06:26:37.529Z,100.00
2023-03-15T06:29:07.271Z,100.00
2023-03-15T06:31:35.672Z,100.00
2023-03-15T06:34:06.834Z,100.00
2023-03-15T06:36:36.968Z,100.00
2023-03-15T06:39:05.772Z,100.00
2023-03-15T06:41:34.109Z,100.00
2023-03-15T06:44:12.586Z,100.00
2023-03-15T06:46:42.163Z,100.00
2023-03-15T06:49:10.904Z,100.00
2023-03-15T06:51:39.358Z,100.00
2023-03-15T06:54:07.973Z,100.00
2023-03-15T06:56:38.442Z,100.00
2023-03-15T06:59:07.517Z,100.00
2023-03-15T07:01:43.336Z,100.00
2023-03-15T07:04:11.621Z,100.00
2023-03-15T07:06:40.753Z,100.00
2023-03-15T07:09:11.179Z,100.00
2023-03-15T07:11:39.437Z,100.00
2023-03-15T07:14:07.699Z,100.00
2023-03-15T07:16:37.270Z,100.00
2023-03-15T07:19:05.553Z,100.00
2023-03-15T07:21:33.854Z,100.00
2023-03-15T07:24:02.265Z,100.00
2023-03-15T07:26:30.514Z,99.85
2023-03-15T07:28:58.763Z,99.18
2023-03-15T07:31:30.009Z,97.92
2023-03-15T07:33:59.589Z,97.66
2023-03-15T07:36:27.837Z,98.46
2023-03-15T07:38:56.063Z,98.45
2023-03-15T07:41:24.283Z,99.28
2023-03-15T07:43:59.689Z,96.99
2023-03-15T07:46:27.933Z,98.26
2023-03-15T07:48:56.425Z,98.52
2023-03-15T07:51:26.071Z,97.23
2023-03-15T07:53:54.296Z,96.33
2023-03-15T07:56:22.751Z,96.28
2023-03-15T07:58:51.035Z,96.05
2023-03-15T08:01:19.907Z,96.41
2023-03-15T08:03:48.123Z,95.31
2023-03-15T08:06:16.406Z,95.69
2023-03-15T08:08:46.710Z,96.48
2023-03-15T08:11:14.937Z,95.91
2023-03-15T08:13:43.169Z,95.33
2023-03-15T08:16:11.422Z,94.20
2023-03-15T08:18:39.673Z,94.29
2023-03-15T08:21:07.923Z,94.24
2023-03-15T08:23:36.245Z,93.67
2023-03-15T08:26:06.402Z,92.68
2023-03-15T08:28:34.638Z,92.45
2023-03-15T08:31:02.852Z,92.25
2023-03-15T08:33:31.853Z,91.08
2023-03-15T08:36:00.135Z,90.87
2023-03-15T08:38:28.381Z,92.00
2023-03-15T08:40:58.134Z,92.05
2023-03-15T08:43:28.082Z,89.96
2023-03-15T08:46:00.970Z,89.16
2023-03-15T08:48:30.266Z,90.05
2023-03-15T08:51:03.461Z,87.76
2023-03-15T08:53:32.033Z,87.97
2023-03-15T08:56:00.877Z,88.24
2023-03-15T08:58:30.417Z,86.48
2023-03-15T09:00:58.695Z,87.54
2023-03-15T09:03:51.774Z,87.77
2023-03-15T09:06:20.248Z,84.74
2023-03-15T09:08:48.496Z,84.62
2023-03-15T09:11:16.794Z,85.30
2023-03-15T09:13:46.343Z,83.62
2023-03-15T09:16:14.764Z,85.27
2023-03-15T09:18:44.101Z,83.46
2023-03-15T09:21:12.388Z,84.12
2023-03-15T09:23:40.582Z,85.23
2023-03-15T09:26:08.803Z,82.31
2023-03-15T09:28:37.015Z,82.01
2023-03-15T09:31:08.405Z,80.92
2023-03-15T09:33:36.840Z,80.98
2023-03-15T09:36:06.067Z,82.38
2023-03-15T09:38:34.503Z,82.32
2023-03-15T09:41:03.805Z,80.59
2023-03-15T09:44:03.990Z,81.16
2023-03-15T09:46:42.346Z,80.71
2023-03-15T09:49:18.259Z,80.31
2023-03-15T09:51:51.025Z,79.52
2023-03-15T09:54:24.740Z,79.78
2023-03-15T09:56:58.281Z,79.23
2023-03-15T09:59:32.785Z,80.67
2023-03-15T10:02:17.830Z,81.10
2023-03-15T10:04:48.785Z,81.22
2023-03-15T10:07:17.642Z,79.43
2023-03-15T10:09:46.778Z,78.09
2023-03-15T10:12:21.036Z,78.58
2023-03-15T10:15:19.822Z,79.75
2023-03-15T10:18:07.981Z,80.71
2023-03-15T10:20:42.371Z,81.35
2023-03-15T10:23:18.082Z,81.90
2023-03-15T10:25:48.199Z,82.70
2023-03-15T10:28:25.566Z,81.62
2023-03-15T10:30:54.220Z,81.32
2023-03-15T10:33:32.017Z,81.04
2023-03-15T10:36:11.265Z,79.77
2023-03-15T10:38:41.935Z,79.45
2023-03-15T10:41:17.863Z,80.52
2023-03-15T10:44:02.010Z,80.52
2023-03-15T10:46:30.342Z,80.59
2023-03-15T10:49:01.904Z,81.12
2023-03-15T10:51:33.170Z,81.44
2023-03-15T10:54:06.622Z,81.50
2023-03-15T10:56:44.868Z,83.14
2023-03-15T10:59:18.949Z,85.53
2023-03-15T11:01:49.832Z,86.11
2023-03-15T11:04:26.831Z,89.25
2023-03-15T11:07:04.444Z,91.43
2023-03-15T11:09:41.777Z,90.75
2023-03-15T11:12:11.929Z,90.89
2023-03-15T11:14:43.811Z,91.06
2023-03-15T11:17:19.745Z,90.15
2023-03-15T11:19:56.934Z,89.01
2023-03-15T11:22:25.842Z,89.39
2023-03-15T11:24:55.756Z,87.69
2023-03-15T11:27:26.123Z,88.92
2023-03-15T11:29:59.960Z,91.69
2023-03-15T11:32:31.649Z,94.31
2023-03-15T11:35:06.559Z,95.82
2023-03-15T11:37:43.634Z,96.32
2023-03-15T11:40:19.278Z,97.38
2023-03-15T11:42:55.561Z,96.23
2023-03-15T11:45:34.472Z,97.36
2023-03-15T11:48:28.088Z,98.53
2023-03-15T11:50:59.940Z,97.47
2023-03-15T11:53:35.755Z,96.73
2023-03-15T11:56:23.525Z,97.28
2023-03-15T11:59:08.704Z,96.22
2023-03-15T12:01:37.032Z,96.05
2023-03-15T12:04:39.184Z,96.48
2023-03-15T12:07:29.916Z,96.45
2023-03-15T12:09:59.372Z,95.69
2023-03-15T12:12:40.898Z,97.80
2023-03-15T12:15:45.659Z,97.05
2023-03-15T12:18:23.209Z,97.35
2023-03-15T12:21:07.461Z,98.06
2023-03-15T12:23:46.483Z,99.12
2023-03-15T12:26:27.800Z,99.25
2023-03-15T12:29:09.334Z,100.00
2023-03-15T12:31:58.439Z,100.00
2023-03-15T12:34:38.133Z,100.00
2023-03-15T12:37:10.671Z,99.97
2023-03-15T12:39:47.335Z,100.00
2023-03-15T12:43:03.852Z,100.00
2023-03-15T12:45:43.552Z,100.00
2023-03-15T12:48:29.603Z,99.92
2023-03-15T12:51:06.814Z,99.71
2023-03-15T12:53:50.741Z,98.62
2023-03-15T12:56:42.048Z,98.76
2023-03-15T12:59:31.913Z,99.68
2023-03-15T13:02:07.467Z,100.00
2023-03-15T13:04:36.303Z,99.51
2023-03-15T13:07:45.605Z,100.00
2023-03-15T13:10:36.675Z,100.00
2023-03-15T13:13:16.341Z,100.00
2023-03-15T13:15:59.366Z,100.00
2023-03-15T13:18:34.351Z,100.00
2023-03-15T13:21:15.109Z,100.00
2023-03-15T13:23:45.473Z,100.00
2023-03-15T13:26:33.257Z,100.00
2023-03-15T13:29:09.328Z,100.00
2023-03-15T13:31:39.164Z,100.00
2023-03-15T13:34:15.761Z,100.00
2023-03-15T13:36:46.940Z,100.00
2023-03-15T13:39:23.246Z,100.00
2023-03-15T13:41:58.497Z,100.00
2023-03-15T13:44:31.011Z,100.00
2023-03-15T13:47:00.594Z,100.00
2023-03-15T13:49:33.991Z,100.00
2023-03-15T13:52:05.429Z,100.00
2023-03-15T13:54:35.130Z,100.00
2023-03-15T13:57:07.728Z,100.00
2023-03-15T13:59:43.052Z,100.00
2023-03-15T14:02:19.603Z,100.00
2023-03-15T14:04:55.409Z,100.00
2023-03-15T14:07:30.030Z,100.00
2023-03-15T14:10:24.735Z,100.00
2023-03-15T14:12:54.501Z,100.00
2023-03-15T14:15:27.996Z,100.00
2023-03-15T14:18:02.484Z,100.00
2023-03-15T14:20:41.298Z,100.00
2023-03-15T14:23:14.217Z,100.00
2023-03-15T14:25:42.958Z,100.00
2023-03-15T14:28:17.064Z,100.00
2023-03-15T14:30:54.838Z,100.00
2023-03-15T14:33:32.805Z,100.00
2023-03-15T14:36:03.854Z,100.00
2023-03-15T14:38:37.851Z,100.00
2023-03-15T14:41:23.277Z,100.00
2023-03-15T14:43:51.542Z,100.00
2023-03-15T14:46:21.364Z,100.00
2023-03-15T14:48:51.435Z,100.00
2023-03-15T14:51:22.095Z,100.00
2023-03-15T14:53:54.040Z,100.00
2023-03-15T14:56:22.278Z,100.00
2023-03-15T14:58:54.057Z,100.00
2023-03-15T15:01:28.306Z,100.00
2023-03-15T15:04:02.355Z,100.00
2023-03-15T15:06:32.946Z,100.00
2023-03-15T15:09:06.451Z,100.00
2023-03-15T15:11:34.820Z,100.00
2023-03-15T15:14:03.066Z,100.00
2023-03-15T15:16:32.675Z,100.00
2023-03-15T15:19:01.502Z,100.00
2023-03-15T15:21:34.053Z,100.00
2023-03-15T15:24:04.444Z,100.00
2023-03-15T15:26:34.509Z,100.00
2023-03-15T15:29:03.120Z,100.00
2023-03-15T15:31:34.726Z,100.00
2023-03-15T15:34:03.313Z,100.00
2023-03-15T15:36:33.865Z,100.00
2023-03-15T15:39:07.152Z,100.00
2023-03-15T15:41:36.266Z,100.00
2023-03-15T15:44:16.469Z,100.00
2023-03-15T15:46:46.183Z,100.00
2023-03-15T15:49:15.516Z,100.00
2023-03-15T15:51:46.558Z,100.00
2023-03-15T15:54:17.822Z,100.00
2023-03-15T15:56:50.853Z,100.00
2023-03-15T15:59:19.784Z,100.00
2023-03-15T16:02:00.255Z,97.06
2023-03-15T16:04:55.218Z,97.26
2023-03-15T16:07:23.824Z,95.87
2023-03-15T16:09:58.054Z,94.53
2023-03-15T16:12:28.407Z,92.93
2023-03-15T16:14:57.163Z,93.93
2023-03-15T16:17:27.266Z,92.03
2023-03-15T16:19:56.097Z,93.49
2023-03-15T16:22:27.122Z,94.10
2023-03-15T16:24:58.147Z,95.89
2023-03-15T16:27:28.822Z,96.55
2023-03-15T16:29:57.374Z,96.18
2023-03-15T16:32:42.916Z,97.88
2023-03-15T16:35:15.630Z,97.47
2023-03-15T16:37:45.430Z,95.90
2023-03-15T16:40:21.453Z,97.29
2023-03-15T16:42:50.747Z,95.99
2023-03-15T16:45:19.472Z,96.58
2023-03-15T16:47:49.598Z,96.81
2023-03-15T16:50:18.993Z,96.31
2023-03-15T16:52:51.153Z,96.99
2023-03-15T16:55:24.988Z,97.42
2023-03-15T16:57:53.394Z,97.61
2023-03-15T17:00:23.030Z,96.70
2023-03-15T17:03:19.849Z,97.52
2023-03-15T17:05:50.762Z,98.94
2023-03-15T17:08:21.260Z,98.96
2023-03-15T17:11:17.712Z,99.36
2023-03-15T17:13:46.110Z,99.40
2023-03-15T17:16:16.575Z,100.00
2023-03-15T17:18:47.708Z,100.00
2023-03-15T17:21:19.674Z,99.41
2023-03-15T17:23:49.513Z,99.58
2023-03-15T17:26:21.984Z,99.31
2023-03-15T17:28:51.167Z,100.00
2023-03-15T17:31:25.633Z,100.00
2023-03-15T17:33:55.526Z,99.79
2023-03-15T17:36:25.752Z,99.71
2023-03-15T17:38:55.466Z,99.76
2023-03-15T17:41:27.846Z,99.29
2023-03-15T17:43:56.437Z,99.18
2023-03-15T17:46:31.254Z,100.00
2023-03-15T17:49:02.944Z,100.00
2023-03-15T17:51:34.307Z,99.88
2023-03-15T17:54:03.155Z,99.81
2023-03-15T17:56:32.622Z,100.00
2023-03-15T17:59:01.347Z,99.79
2023-03-15T18:01:30.245Z,100.00
2023-03-15T18:03:59.947Z,99.84
2023-03-15T18:06:28.212Z,100.00
2023-03-15T18:08:56.489Z,100.00
2023-03-15T18:11:27.887Z,100.00
2023-03-15T18:13:56.922Z,100.00
2023-03-15T18:16:25.759Z,100.00
2023-03-15T18:18:54.158Z,99.93
2023-03-15T18:21:27.406Z,99.88
2023-03-15T18:23:55.985Z,98.71
2023-03-15T18:26:24.582Z,99.12
2023-03-15T18:28:52.952Z,98.71
2023-03-15T18:31:23.601Z,98.51
2023-03-15T18:33:53.827Z,99.26
2023-03-15T18:36:23.755Z,98.82
2023-03-15T18:38:52.617Z,99.33
2023-03-15T18:41:23.586Z,99.63
2023-03-15T18:43:52.839Z,99.91
2023-03-15T18:46:24.324Z,99.46
2023-03-15T18:48:54.407Z,99.56
2023-03-15T18:51:28.208Z,99.75
2023-03-15T18:53:56.996Z,99.73
2023-03-15T18:56:28.086Z,100.00
2023-03-15T18:58:56.286Z,100.00
2023-03-15T19:01:29.657Z,100.00
2023-03-15T19:04:01.286Z,100.00
2023-03-15T19:06:56.279Z,99.65
2023-03-15T19:09:52.448Z,99.94
2023-03-15T19:12:20.989Z,99.90
2023-03-15T19:14:49.396Z,99.68
2023-03-15T19:17:18.205Z,99.77
2023-03-15T19:19:46.399Z,99.14
2023-03-15T19:22:16.129Z,99.09
2023-03-15T19:24:44.391Z,99.73
2023-03-15T19:27:12.711Z,99.29
2023-03-15T19:29:41.674Z,99.08
2023-03-15T19:32:10.032Z,98.69
2023-03-15T19:34:38.340Z,99.51
2023-03-15T19:37:06.769Z,99.22
2023-03-15T19:39:36.421Z,99.02
2023-03-15T19:42:05.094Z,99.14
2023-03-15T19:44:33.714Z,98.88
2023-03-15T19:47:02.081Z,99.53
2023-03-15T19:49:30.410Z,100.00
2023-03-15T19:51:58.691Z,100.00
2023-03-15T19:54:27.774Z,100.00
2023-03-15T19:56:58.589Z,99.82
2023-03-15T19:59:27.184Z,99.93
2023-03-15T20:01:55.616Z,99.62
2023-03-15T20:04:24.050Z,99.97
2023-03-15T20:06:52.398Z,99.32
2023-03-15T20:09:20.841Z,99.73
2023-03-15T20:11:49.161Z,99.02
2023-03-15T20:14:20.639Z,99.88
2023-03-15T20:16:49.043Z,99.43
2023-03-15T20:19:17.325Z,99.25
2023-03-15T20:21:45.586Z,98.51
2023-03-15T20:24:13.927Z,99.15
2023-03-15T20:26:43.064Z,98.50
2023-03-15T20:29:12.701Z,98.86
2023-03-15T20:31:42.395Z,98.61
2023-03-15T20:34:12.129Z,98.72
2023-03-15T20:36:41.799Z,98.23
2023-03-15T20:39:10.792Z,99.03
2023-03-15T20:41:39.273Z,97.96
2023-03-15T20:44:08.499Z,98.92
2023-03-15T20:46:37.982Z,97.83
2023-03-15T20:49:07.866Z,98.09
2023-03-15T20:51:36.415Z,97.62
2023-03-15T20:54:05.012Z,97.10
2023-03-15T20:56:34.289Z,97.42
2023-03-15T20:59:09.054Z,98.09
2023-03-15T21:01:37.418Z,98.68
2023-03-15T21:04:07.084Z,97.98
2023-03-15T21:06:35.526Z,98.41
2023-03-15T21:09:29.097Z,97.94
2023-03-15T21:11:57.467Z,98.54
2023-03-15T21:14:25.806Z,97.96
2023-03-15T21:16:54.429Z,96.79
2023-03-15T21:19:24.852Z,98.41
2023-03-15T21:21:53.205Z,97.86
2023-03-15T21:24:21.494Z,98.85
2023-03-15T21:26:54.681Z,98.43
2023-03-15T21:29:23.433Z,98.46
2023-03-15T21:31:52.081Z,97.90
2023-03-15T21:34:20.585Z,98.97
2023-03-15T21:36:50.260Z,98.30
2023-03-15T21:39:18.876Z,99.21
2023-03-15T21:41:47.103Z,100.00
2023-03-15T21:44:15.382Z,100.00
2023-03-15T21:46:43.672Z,100.00
2023-03-15T21:49:12.001Z,99.66
2023-03-15T21:51:45.825Z,99.18
2023-03-15T21:54:15.478Z,98.94
2023-03-15T21:56:43.717Z,97.77
2023-03-15T21:59:12.411Z,97.74
2023-03-15T22:01:40.722Z,97.83
2023-03-15T22:04:09.050Z,97.16
2023-03-15T22:06:38.341Z,97.27
2023-03-15T22:09:06.556Z,97.81
2023-03-15T22:11:36.142Z,97.38
2023-03-15T22:14:04.442Z,97.93
2023-03-15T22:16:33.620Z,98.73
2023-03-15T22:19:03.148Z,97.68
2023-03-15T22:21:31.437Z,97.32
2023-03-15T22:23:59.974Z,97.86
2023-03-15T22:26:28.213Z,98.90
2023-03-15T22:28:57.795Z,97.70
2023-03-15T22:31:26.141Z,97.50
2023-03-15T22:33:54.796Z,98.70
2023-03-15T22:36:23.096Z,97.99
2023-03-15T22:38:52.227Z,98.08
2023-03-15T22:41:21.069Z,97.34
2023-03-15T22:43:49.458Z,98.89
2023-03-15T22:46:19.324Z,98.55
2023-03-15T22:48:47.586Z,99.47
2023-03-15T22:51:21.319Z,97.44
2023-03-15T22:53:50.204Z,98.27
2023-03-15T22:56:18.790Z,98.59
2023-03-15T22:58:48.745Z,97.99
2023-03-15T23:01:24.500Z,98.21
2023-03-15T23:03:52.948Z,96.87
2023-03-15T23:06:23.246Z,96.70
2023-03-15T23:08:51.609Z,98.62
2023-03-15T23:11:19.959Z,98.11
2023-03-15T23:13:49.287Z,97.19
2023-03-15T23:16:18.317Z,97.97
2023-03-15T23:18:48.732Z,98.86
2023-03-15T23:21:17.007Z,98.99
2023-03-15T23:23:45.289Z,99.21
2023-03-15T23:26:16.283Z,98.52
2023-03-15T23:28:44.819Z,98.27
2023-03-15T23:31:13.442Z,99.00
2023-03-15T23:33:41.695Z,99.29
2023-03-15T23:36:11.459Z,97.53
2023-03-15T23:38:39.821Z,98.83
2023-03-15T23:41:08.133Z,99.31
2023-03-15T23:43:37.022Z,99.69
2023-03-15T23:46:06.833Z,99.70
2023-03-15T23:48:36.210Z,99.62
2023-03-15T23:51:04.802Z,99.95
2023-03-15T23:53:34.618Z,100.00
2023-03-15T23:56:03.202Z,99.26
2023-03-15T23:58:33.624Z,98.97
